sensor_id;sensor_type;location;lat;lon;timestamp;temperature;humidity
6879;DHT22;3478;51.462;7.338;2023-08-21T00:03:50;20.30;99.90
6879;DHT22;3478;51.462;7.338;2023-08-21T00:08:52;20.30;99.90
6879;DHT22;3478;51.462;7.338;2023-08-21T00:13:56;20.30;99.90
6879;DHT22;3478;51.462;7.338;2023-08-21T00:18:58;20.10;99.90
6879;DHT22;3478;51.462;7.338;2023-08-21T00:23:59;19.90;99.90
6879;DHT22;3478;51.462;7.338;2023-08-21T00:29:03;19.80;99.90
6879;DHT22;3478;51.462;7.338;2023-08-21T00:34:05;19.90;99.90
6879;DHT22;3478;51.462;7.338;2023-08-21T00:39:07;19.80;99.90
6879;DHT22;3478;51.462;7.338;2023-08-21T00:44:10;19.70;99.90
6879;DHT22;3478;51.462;7.338;2023-08-21T00:49:12;19.70;99.90
6879;DHT22;3478;51.462;7.338;2023-08-21T00:54:14;19.70;99.90
6879;DHT22;3478;51.462;7.338;2023-08-21T00:59:18;19.70;99.90
6879;DHT22;3478;51.462;7.338;2023-08-21T01:04:20;19.60;99.90
6879;DHT22;3478;51.462;7.338;2023-08-21T01:09:27;19.50;99.90
6879;DHT22;3478;51.462;7.338;2023-08-21T01:14:39;19.50;99.90
6879;DHT22;3478;51.462;7.338;2023-08-21T01:19:44;19.40;99.90
6879;DHT22;3478;51.462;7.338;2023-08-21T01:24:50;19.30;99.90
6879;DHT22;3478;51.462;7.338;2023-08-21T01:29:52;19.20;99.90
6879;DHT22;3478;51.462;7.338;2023-08-21T01:34:55;19.20;99.90
6879;DHT22;3478;51.462;7.338;2023-08-21T01:39:59;19.20;99.90
6879;DHT22;3478;51.462;7.338;2023-08-21T01:45:01;19.10;99.90
6879;DHT22;3478;51.462;7.338;2023-08-21T01:50:03;19.10;99.90
6879;DHT22;3478;51.462;7.338;2023-08-21T01:55:07;19.00;99.90
6879;DHT22;3478;51.462;7.338;2023-08-21T02:00:12;19.10;99.90
6879;DHT22;3478;51.462;7.338;2023-08-21T02:05:14;18.90;99.90
6879;DHT22;3478;51.462;7.338;2023-08-21T02:10:18;18.90;99.90
6879;DHT22;3478;51.462;7.338;2023-08-21T02:15:19;18.80;99.90
6879;DHT22;3478;51.462;7.338;2023-08-21T02:20:22;18.70;99.90
6879;DHT22;3478;51.462;7.338;2023-08-21T02:25:25;18.70;99.90
6879;DHT22;3478;51.462;7.338;2023-08-21T02:30:28;18.70;99.90
6879;DHT22;3478;51.462;7.338;2023-08-21T02:35:30;18.70;99.90
6879;DHT22;3478;51.462;7.338;2023-08-21T02:40:33;18.70;99.90
6879;DHT22;3478;51.462;7.338;2023-08-21T02:45:35;18.70;99.90
6879;DHT22;3478;51.462;7.338;2023-08-21T02:50:37;18.70;99.90
6879;DHT22;3478;51.462;7.338;2023-08-21T02:55:40;18.80;99.90
6879;DHT22;3478;51.462;7.338;2023-08-21T03:00:42;18.70;99.90
6879;DHT22;3478;51.462;7.338;2023-08-21T03:05:44;18.70;99.90
6879;DHT22;3478;51.462;7.338;2023-08-21T03:10:48;18.80;99.90
6879;DHT22;3478;51.462;7.338;2023-08-21T03:15:50;18.80;99.90
6879;DHT22;3478;51.462;7.338;2023-08-21T03:20:52;18.80;99.90
6879;DHT22;3478;51.462;7.338;2023-08-21T03:25:55;18.90;99.90
6879;DHT22;3478;51.462;7.338;2023-08-21T03:30:57;18.80;99.90
6879;DHT22;3478;51.462;7.338;2023-08-21T03:35:59;18.80;99.90
6879;DHT22;3478;51.462;7.338;2023-08-21T03:41:02;18.80;99.90
6879;DHT22;3478;51.462;7.338;2023-08-21T03:46:05;18.80;99.90
6879;DHT22;3478;51.462;7.338;2023-08-21T03:51:07;18.70;99.90
6879;DHT22;3478;51.462;7.338;2023-08-21T03:56:10;18.70;99.90
6879;DHT22;3478;51.462;7.338;2023-08-21T04:01:12;18.70;99.90
6879;DHT22;3478;51.462;7.338;2023-08-21T04:06:14;18.50;99.90
6879;DHT22;3478;51.462;7.338;2023-08-21T04:11:18;18.50;99.90
6879;DHT22;3478;51.462;7.338;2023-08-21T04:16:20;18.50;99.90
6879;DHT22;3478;51.462;7.338;2023-08-21T04:21:22;18.50;99.90
6879;DHT22;3478;51.462;7.338;2023-08-21T04:26:25;18.50;99.90
6879;DHT22;3478;51.462;7.338;2023-08-21T04:31:27;18.50;99.90
6879;DHT22;3478;51.462;7.338;2023-08-21T04:36:29;18.50;99.90
6879;DHT22;3478;51.462;7.338;2023-08-21T04:41:32;18.50;99.90
6879;DHT22;3478;51.462;7.338;2023-08-21T04:46:34;18.40;99.90
6879;DHT22;3478;51.462;7.338;2023-08-21T04:51:36;18.50;99.90
6879;DHT22;3478;51.462;7.338;2023-08-21T04:56:39;18.60;99.90
6879;DHT22;3478;51.462;7.338;2023-08-21T05:01:41;18.60;99.90
6879;DHT22;3478;51.462;7.338;2023-08-21T05:06:49;18.60;99.90
6879;DHT22;3478;51.462;7.338;2023-08-21T05:11:53;18.60;99.90
6879;DHT22;3478;51.462;7.338;2023-08-21T05:16:55;18.70;99.90
6879;DHT22;3478;51.462;7.338;2023-08-21T05:21:57;18.70;99.90
6879;DHT22;3478;51.462;7.338;2023-08-21T05:27:01;18.80;99.90
6879;DHT22;3478;51.462;7.338;2023-08-21T05:32:05;18.80;99.90
6879;DHT22;3478;51.462;7.338;2023-08-21T05:37:07;19.00;99.90
6879;DHT22;3478;51.462;7.338;2023-08-21T05:42:10;19.20;99.90
6879;DHT22;3478;51.462;7.338;2023-08-21T05:47:12;19.40;99.90
6879;DHT22;3478;51.462;7.338;2023-08-21T05:52:14;19.60;99.90
6879;DHT22;3478;51.462;7.338;2023-08-21T05:57:17;19.70;99.90
6879;DHT22;3478;51.462;7.338;2023-08-21T06:02:19;19.90;99.90
6879;DHT22;3478;51.462;7.338;2023-08-21T06:07:21;20.20;99.90
6879;DHT22;3478;51.462;7.338;2023-08-21T06:12:25;20.50;99.90
6879;DHT22;3478;51.462;7.338;2023-08-21T06:17:27;20.80;99.90
6879;DHT22;3478;51.462;7.338;2023-08-21T06:22:29;20.80;99.90
6879;DHT22;3478;51.462;7.338;2023-08-21T06:27:33;20.70;99.90
6879;DHT22;3478;51.462;7.338;2023-08-21T06:32:34;20.70;99.90
6879;DHT22;3478;51.462;7.338;2023-08-21T06:37:36;20.70;99.90
6879;DHT22;3478;51.462;7.338;2023-08-21T06:42:40;20.80;99.90
6879;DHT22;3478;51.462;7.338;2023-08-21T06:47:42;20.90;99.90
6879;DHT22;3478;51.462;7.338;2023-08-21T06:52:44;21.00;99.90
6879;DHT22;3478;51.462;7.338;2023-08-21T06:57:47;21.10;99.90
6879;DHT22;3478;51.462;7.338;2023-08-21T07:02:49;21.20;99.90
6879;DHT22;3478;51.462;7.338;2023-08-21T07:07:51;21.40;99.90
6879;DHT22;3478;51.462;7.338;2023-08-21T07:12:55;21.70;99.90
6879;DHT22;3478;51.462;7.338;2023-08-21T07:17:57;22.20;99.90
6879;DHT22;3478;51.462;7.338;2023-08-21T07:23:00;22.50;99.90
6879;DHT22;3478;51.462;7.338;2023-08-21T07:28:04;22.60;99.90
6879;DHT22;3478;51.462;7.338;2023-08-21T07:33:06;22.70;99.90
6879;DHT22;3478;51.462;7.338;2023-08-21T07:38:08;22.70;99.90
6879;DHT22;3478;51.462;7.338;2023-08-21T07:43:11;22.80;99.90
6879;DHT22;3478;51.462;7.338;2023-08-21T07:48:13;22.90;99.90
6879;DHT22;3478;51.462;7.338;2023-08-21T07:53:15;22.90;99.90
6879;DHT22;3478;51.462;7.338;2023-08-21T07:58:19;23.20;99.90
6879;DHT22;3478;51.462;7.338;2023-08-21T08:03:21;23.50;99.90
6879;DHT22;3478;51.462;7.338;2023-08-21T08:08:25;23.50;99.90
6879;DHT22;3478;51.462;7.338;2023-08-21T08:13:28;23.50;99.90
6879;DHT22;3478;51.462;7.338;2023-08-21T08:18:30;23.70;99.90
6879;DHT22;3478;51.462;7.338;2023-08-21T08:23:33;23.90;99.90
6879;DHT22;3478;51.462;7.338;2023-08-21T08:28:36;24.20;99.90
6879;DHT22;3478;51.462;7.338;2023-08-21T08:33:38;24.40;99.90
6879;DHT22;3478;51.462;7.338;2023-08-21T08:38:40;24.60;99.90
6879;DHT22;3478;51.462;7.338;2023-08-21T08:43:45;24.60;99.90
6879;DHT22;3478;51.462;7.338;2023-08-21T08:48:48;24.40;99.90
6879;DHT22;3478;51.462;7.338;2023-08-21T08:53:50;24.40;99.90
6879;DHT22;3478;51.462;7.338;2023-08-21T08:58:53;24.40;99.90
6879;DHT22;3478;51.462;7.338;2023-08-21T09:03:55;24.60;99.90
6879;DHT22;3478;51.462;7.338;2023-08-21T09:09:07;24.60;99.90
6879;DHT22;3478;51.462;7.338;2023-08-21T09:14:12;24.90;99.90
6879;DHT22;3478;51.462;7.338;2023-08-21T09:19:21;24.90;99.90
6879;DHT22;3478;51.462;7.338;2023-08-21T09:24:24;24.90;99.90
6879;DHT22;3478;51.462;7.338;2023-08-21T09:29:38;25.00;99.90
6879;DHT22;3478;51.462;7.338;2023-08-21T09:34:40;25.10;99.90
6879;DHT22;3478;51.462;7.338;2023-08-21T09:39:42;25.30;99.90
6879;DHT22;3478;51.462;7.338;2023-08-21T09:44:49;25.50;99.90
6879;DHT22;3478;51.462;7.338;2023-08-21T09:49:53;25.80;99.90
6879;DHT22;3478;51.462;7.338;2023-08-21T09:54:56;26.00;99.90
6879;DHT22;3478;51.462;7.338;2023-08-21T10:00:01;26.30;99.90
6879;DHT22;3478;51.462;7.338;2023-08-21T10:05:16;26.70;99.90
6879;DHT22;3478;51.462;7.338;2023-08-21T10:10:18;27.10;99.90
6879;DHT22;3478;51.462;7.338;2023-08-21T10:15:22;27.40;99.90
6879;DHT22;3478;51.462;7.338;2023-08-21T10:20:25;27.90;99.90
6879;DHT22;3478;51.462;7.338;2023-08-21T10:25:28;28.10;99.90
6879;DHT22;3478;51.462;7.338;2023-08-21T10:30:31;28.30;99.90
6879;DHT22;3478;51.462;7.338;2023-08-21T10:35:34;28.70;99.90
6879;DHT22;3478;51.462;7.338;2023-08-21T10:40:38;28.90;99.90
6879;DHT22;3478;51.462;7.338;2023-08-21T10:45:53;29.30;99.90
6879;DHT22;3478;51.462;7.338;2023-08-21T10:50:55;29.50;99.90
6879;DHT22;3478;51.462;7.338;2023-08-21T10:56:01;29.70;99.90
6879;DHT22;3478;51.462;7.338;2023-08-21T11:01:04;29.60;99.90
6879;DHT22;3478;51.462;7.338;2023-08-21T11:06:07;29.60;99.90
6879;DHT22;3478;51.462;7.338;2023-08-21T11:11:10;29.70;99.90
6879;DHT22;3478;51.462;7.338;2023-08-21T11:16:14;29.60;99.90
6879;DHT22;3478;51.462;7.338;2023-08-21T11:21:16;30.30;99.90
6879;DHT22;3478;51.462;7.338;2023-08-21T11:26:20;30.90;98.90
6879;DHT22;3478;51.462;7.338;2023-08-21T11:31:24;31.50;99.60
6879;DHT22;3478;51.462;7.338;2023-08-21T11:36:26;31.40;97.00
6879;DHT22;3478;51.462;7.338;2023-08-21T11:41:28;30.90;97.20
6879;DHT22;3478;51.462;7.338;2023-08-21T11:46:31;30.80;97.70
6879;DHT22;3478;51.462;7.338;2023-08-21T11:51:38;31.20;97.40
6879;DHT22;3478;51.462;7.338;2023-08-21T11:56:40;32.00;96.00
6879;DHT22;3478;51.462;7.338;2023-08-21T12:01:50;31.70;95.10
6879;DHT22;3478;51.462;7.338;2023-08-21T12:06:52;32.00;94.60
6879;DHT22;3478;51.462;7.338;2023-08-21T12:11:54;32.40;96.30
6879;DHT22;3478;51.462;7.338;2023-08-21T12:16:57;33.60;94.00
6879;DHT22;3478;51.462;7.338;2023-08-21T12:21:59;34.40;90.10
6879;DHT22;3478;51.462;7.338;2023-08-21T12:27:02;32.90;89.20
6879;DHT22;3478;51.462;7.338;2023-08-21T12:32:06;32.20;91.70
6879;DHT22;3478;51.462;7.338;2023-08-21T12:37:08;33.50;92.40
6879;DHT22;3478;51.462;7.338;2023-08-21T12:42:10;34.80;83.60
6879;DHT22;3478;51.462;7.338;2023-08-21T12:47:13;35.50;83.40
6879;DHT22;3478;51.462;7.338;2023-08-21T12:52:15;35.20;77.50
6879;DHT22;3478;51.462;7.338;2023-08-21T12:57:17;35.80;76.80
6879;DHT22;3478;51.462;7.338;2023-08-21T13:02:20;36.60;76.70
6879;DHT22;3478;51.462;7.338;2023-08-21T13:07:23;37.20;69.10
6879;DHT22;3478;51.462;7.338;2023-08-21T13:12:25;37.00;69.50
6879;DHT22;3478;51.462;7.338;2023-08-21T13:17:29;37.30;68.50
6879;DHT22;3478;51.462;7.338;2023-08-21T13:22:44;37.90;61.80
6879;DHT22;3478;51.462;7.338;2023-08-21T13:27:46;37.50;59.50
6879;DHT22;3478;51.462;7.338;2023-08-21T13:32:50;37.90;62.20
6879;DHT22;3478;51.462;7.338;2023-08-21T13:37:54;38.70;61.00
6879;DHT22;3478;51.462;7.338;2023-08-21T13:42:56;39.20;56.50
6879;DHT22;3478;51.462;7.338;2023-08-21T13:48:02;38.10;55.80
6879;DHT22;3478;51.462;7.338;2023-08-21T13:53:04;37.70;56.10
6879;DHT22;3478;51.462;7.338;2023-08-21T13:58:07;38.20;57.60
6879;DHT22;3478;51.462;7.338;2023-08-21T14:03:10;38.30;54.40
6879;DHT22;3478;51.462;7.338;2023-08-21T14:08:12;36.80;55.00
6879;DHT22;3478;51.462;7.338;2023-08-21T14:13:14;35.60;58.50
6879;DHT22;3478;51.462;7.338;2023-08-21T14:18:17;37.00;57.50
6879;DHT22;3478;51.462;7.338;2023-08-21T14:23:19;38.40;55.20
6879;DHT22;3478;51.462;7.338;2023-08-21T14:28:21;38.70;54.40
6879;DHT22;3478;51.462;7.338;2023-08-21T14:33:24;38.90;53.50
6879;DHT22;3478;51.462;7.338;2023-08-21T14:38:26;39.10;54.50
6879;DHT22;3478;51.462;7.338;2023-08-21T14:43:28;39.90;50.00
6879;DHT22;3478;51.462;7.338;2023-08-21T14:48:34;39.00;53.70
6879;DHT22;3478;51.462;7.338;2023-08-21T14:53:36;39.30;52.40
6879;DHT22;3478;51.462;7.338;2023-08-21T14:58:38;38.80;51.60
6879;DHT22;3478;51.462;7.338;2023-08-21T15:03:47;37.10;53.70
6879;DHT22;3478;51.462;7.338;2023-08-21T15:08:49;36.40;54.30
6879;DHT22;3478;51.462;7.338;2023-08-21T15:13:51;36.00;56.80
6879;DHT22;3478;51.462;7.338;2023-08-21T15:18:54;37.30;55.00
6879;DHT22;3478;51.462;7.338;2023-08-21T15:23:56;38.00;52.80
6879;DHT22;3478;51.462;7.338;2023-08-21T15:29:00;38.20;53.20
6879;DHT22;3478;51.462;7.338;2023-08-21T15:34:07;37.10;53.50
6879;DHT22;3478;51.462;7.338;2023-08-21T15:39:10;35.40;55.80
6879;DHT22;3478;51.462;7.338;2023-08-21T15:44:12;35.90;55.50
6879;DHT22;3478;51.462;7.338;2023-08-21T15:49:15;36.70;57.60
6879;DHT22;3478;51.462;7.338;2023-08-21T15:54:18;37.40;56.00
6879;DHT22;3478;51.462;7.338;2023-08-21T15:59:20;37.80;54.10
6879;DHT22;3478;51.462;7.338;2023-08-21T16:04:24;37.10;52.30
6879;DHT22;3478;51.462;7.338;2023-08-21T16:09:26;36.70;53.10
6879;DHT22;3478;51.462;7.338;2023-08-21T16:14:28;37.10;54.50
6879;DHT22;3478;51.462;7.338;2023-08-21T16:19:31;37.70;52.80
6879;DHT22;3478;51.462;7.338;2023-08-21T16:24:33;37.90;53.10
6879;DHT22;3478;51.462;7.338;2023-08-21T16:29:36;37.30;53.20
6879;DHT22;3478;51.462;7.338;2023-08-21T16:34:41;36.40;53.00
6879;DHT22;3478;51.462;7.338;2023-08-21T16:39:44;35.40;55.40
6879;DHT22;3478;51.462;7.338;2023-08-21T16:44:47;34.10;56.30
6879;DHT22;3478;51.462;7.338;2023-08-21T16:49:50;32.30;59.60
6879;DHT22;3478;51.462;7.338;2023-08-21T16:54:52;31.00;64.60
6879;DHT22;3478;51.462;7.338;2023-08-21T16:59:54;29.70;65.30
6879;DHT22;3478;51.462;7.338;2023-08-21T17:04:59;28.60;69.00
6879;DHT22;3478;51.462;7.338;2023-08-21T17:10:01;28.40;73.20
6879;DHT22;3478;51.462;7.338;2023-08-21T17:15:05;29.70;70.30
6879;DHT22;3478;51.462;7.338;2023-08-21T17:20:10;30.70;67.20
6879;DHT22;3478;51.462;7.338;2023-08-21T17:25:12;31.20;67.30
6879;DHT22;3478;51.462;7.338;2023-08-21T17:30:14;30.80;66.00
6879;DHT22;3478;51.462;7.338;2023-08-21T17:35:18;30.90;65.40
6879;DHT22;3478;51.462;7.338;2023-08-21T17:40:20;31.20;65.70
6879;DHT22;3478;51.462;7.338;2023-08-21T17:45:22;31.50;66.40
6879;DHT22;3478;51.462;7.338;2023-08-21T17:50:26;31.50;65.10
6879;DHT22;3478;51.462;7.338;2023-08-21T17:55:28;31.20;66.20
6879;DHT22;3478;51.462;7.338;2023-08-21T18:00:33;30.50;65.60
6879;DHT22;3478;51.462;7.338;2023-08-21T18:05:36;29.50;67.60
6879;DHT22;3478;51.462;7.338;2023-08-21T18:10:38;28.60;73.00
6879;DHT22;3478;51.462;7.338;2023-08-21T18:15:40;27.80;75.00
6879;DHT22;3478;51.462;7.338;2023-08-21T18:20:48;27.30;77.80
6879;DHT22;3478;51.462;7.338;2023-08-21T18:25:51;26.70;78.80
6879;DHT22;3478;51.462;7.338;2023-08-21T18:30:54;26.20;80.50
6879;DHT22;3478;51.462;7.338;2023-08-21T18:35:58;25.80;85.20
6879;DHT22;3478;51.462;7.338;2023-08-21T18:41:01;25.50;89.10
6879;DHT22;3478;51.462;7.338;2023-08-21T18:46:03;25.30;91.00
6879;DHT22;3478;51.462;7.338;2023-08-21T18:51:06;25.10;92.20
6879;DHT22;3478;51.462;7.338;2023-08-21T18:56:08;24.90;93.40
6879;DHT22;3478;51.462;7.338;2023-08-21T19:01:10;24.80;94.60
6879;DHT22;3478;51.462;7.338;2023-08-21T19:06:14;24.60;96.00
6879;DHT22;3478;51.462;7.338;2023-08-21T19:11:16;24.50;97.00
6879;DHT22;3478;51.462;7.338;2023-08-21T19:16:19;24.30;96.90
6879;DHT22;3478;51.462;7.338;2023-08-21T19:21:22;24.20;98.10
6879;DHT22;3478;51.462;7.338;2023-08-21T19:26:24;24.10;98.80
6879;DHT22;3478;51.462;7.338;2023-08-21T19:31:26;24.10;99.20
6879;DHT22;3478;51.462;7.338;2023-08-21T19:36:29;23.90;99.90
6879;DHT22;3478;51.462;7.338;2023-08-21T19:41:32;23.80;99.90
6879;DHT22;3478;51.462;7.338;2023-08-21T19:46:34;23.70;99.90
6879;DHT22;3478;51.462;7.338;2023-08-21T19:51:38;23.60;99.90
6879;DHT22;3478;51.462;7.338;2023-08-21T19:56:40;23.60;99.90
6879;DHT22;3478;51.462;7.338;2023-08-21T20:01:42;23.50;99.90
6879;DHT22;3478;51.462;7.338;2023-08-21T20:06:46;23.40;99.90
6879;DHT22;3478;51.462;7.338;2023-08-21T20:11:48;23.20;99.90
6879;DHT22;3478;51.462;7.338;2023-08-21T20:16:50;23.10;99.90
6879;DHT22;3478;51.462;7.338;2023-08-21T20:21:54;23.10;99.90
6879;DHT22;3478;51.462;7.338;2023-08-21T20:26:56;22.90;99.90
6879;DHT22;3478;51.462;7.338;2023-08-21T20:31:58;22.80;99.90
6879;DHT22;3478;51.462;7.338;2023-08-21T20:37:01;22.80;99.90
6879;DHT22;3478;51.462;7.338;2023-08-21T20:42:04;22.80;99.90
6879;DHT22;3478;51.462;7.338;2023-08-21T20:47:07;22.70;99.90
6879;DHT22;3478;51.462;7.338;2023-08-21T20:52:10;22.70;99.90
6879;DHT22;3478;51.462;7.338;2023-08-21T20:57:12;22.60;99.90
6879;DHT22;3478;51.462;7.338;2023-08-21T21:02:14;22.50;99.90
6879;DHT22;3478;51.462;7.338;2023-08-21T21:07:17;22.40;99.90
6879;DHT22;3478;51.462;7.338;2023-08-21T21:12:19;22.30;99.90
6879;DHT22;3478;51.462;7.338;2023-08-21T21:17:21;22.20;99.90
6879;DHT22;3478;51.462;7.338;2023-08-21T21:22:24;22.10;99.90
6879;DHT22;3478;51.462;7.338;2023-08-21T21:27:26;22.00;99.90
6879;DHT22;3478;51.462;7.338;2023-08-21T21:32:28;22.00;99.90
6879;DHT22;3478;51.462;7.338;2023-08-21T21:37:32;22.00;99.90
6879;DHT22;3478;51.462;7.338;2023-08-21T21:42:34;21.90;99.90
6879;DHT22;3478;51.462;7.338;2023-08-21T21:47:36;21.80;99.90
6879;DHT22;3478;51.462;7.338;2023-08-21T21:52:39;21.70;99.90
6879;DHT22;3478;51.462;7.338;2023-08-21T21:57:41;21.60;99.90
6879;DHT22;3478;51.462;7.338;2023-08-21T22:02:43;21.50;99.90
6879;DHT22;3478;51.462;7.338;2023-08-21T22:07:46;21.50;99.90
6879;DHT22;3478;51.462;7.338;2023-08-21T22:12:49;21.40;99.90
6879;DHT22;3478;51.462;7.338;2023-08-21T22:17:51;21.30;99.90
6879;DHT22;3478;51.462;7.338;2023-08-21T22:22:54;21.20;99.90
6879;DHT22;3478;51.462;7.338;2023-08-21T22:27:57;21.10;99.90
6879;DHT22;3478;51.462;7.338;2023-08-21T22:33:02;21.10;99.90
6879;DHT22;3478;51.462;7.338;2023-08-21T22:38:05;21.00;99.90
6879;DHT22;3478;51.462;7.338;2023-08-21T22:43:07;20.90;99.90
6879;DHT22;3478;51.462;7.338;2023-08-21T22:48:09;20.80;99.90
6879;DHT22;3478;51.462;7.338;2023-08-21T22:53:12;20.70;99.90
6879;DHT22;3478;51.462;7.338;2023-08-21T22:58:15;20.70;99.90
6879;DHT22;3478;51.462;7.338;2023-08-21T23:03:17;20.70;99.90
6879;DHT22;3478;51.462;7.338;2023-08-21T23:08:23;20.70;99.90
6879;DHT22;3478;51.462;7.338;2023-08-21T23:13:25;20.50;99.90
6879;DHT22;3478;51.462;7.338;2023-08-21T23:18:27;20.50;99.90
6879;DHT22;3478;51.462;7.338;2023-08-21T23:23:31;20.50;99.90
6879;DHT22;3478;51.462;7.338;2023-08-21T23:28:33;20.40;99.90
6879;DHT22;3478;51.462;7.338;2023-08-21T23:33:35;20.40;99.90
6879;DHT22;3478;51.462;7.338;2023-08-21T23:38:38;20.50;99.90
6879;DHT22;3478;51.462;7.338;2023-08-21T23:43:40;20.40;99.90
6879;DHT22;3478;51.462;7.338;2023-08-21T23:48:42;20.40;99.90
6879;DHT22;3478;51.462;7.338;2023-08-21T23:53:45;20.30;99.90
6879;DHT22;3478;51.462;7.338;2023-08-21T23:58:47;20.20;99.90
